Time;durP1;ratioP1;P1;durP2;ratioP2;P2;SDS_P1;SDS_P2;PMS_P1;PMS_P2;Temp;Humidity;BMP_temperature;BMP_pressure;BME280_temperature;BME280_humidity;BME280_pressure;Samples;Min_cycle;Max_cycle;Signal;HPM_P1;HPM_P2
2023/12/20 00:00:37;;;;;;;0.00;0.00;;;6.80;91.10;;;;;;5087032;28;20478;-69
2023/12/20 00:03:03;;;;;;;0.00;0.00;;;6.90;91.10;;;;;;5070213;28;20507;-69
2023/12/20 00:05:29;;;;;;;0.20;0.20;;;6.80;91.00;;;;;;5070401;28;20047;-70
2023/12/20 00:07:55;;;;;;;0.00;0.00;;;6.70;90.80;;;;;;5087938;28;20397;-69
2023/12/20 00:10:20;;;;;;;0.20;0.20;;;6.80;91.00;;;;;;5087535;28;20097;-69
2023/12/20 00:12:47;;;;;;;0.00;0.00;;;6.80;90.90;;;;;;5088077;28;20032;-69
2023/12/20 00:15:13;;;;;;;0.00;0.00;;;6.70;90.70;;;;;;5088055;28;20406;-69
2023/12/20 00:17:39;;;;;;;0.08;0.08;;;6.60;90.60;;;;;;5088034;28;20036;-69
2023/12/20 00:20:06;;;;;;;0.00;0.00;;;6.60;90.70;;;;;;5087990;28;20048;-70
2023/12/20 00:22:31;;;;;;;0.00;0.00;;;6.60;90.60;;;;;;5088293;28;20040;-70
2023/12/20 00:24:57;;;;;;;0.00;0.00;;;6.60;90.30;;;;;;5087666;28;20040;-69
2023/12/20 00:27:23;;;;;;;0.80;0.75;;;6.60;90.60;;;;;;5087752;28;20129;-69
2023/12/20 00:29:50;;;;;;;0.43;0.43;;;6.60;90.60;;;;;;5087860;28;20040;-70
2023/12/20 00:32:16;;;;;;;4.90;1.38;;;6.60;90.50;;;;;;5087930;28;20127;-69
2023/12/20 00:34:43;;;;;;;0.00;0.00;;;6.60;90.60;;;;;;5086858;28;20048;-69
2023/12/20 00:37:08;;;;;;;6.03;1.35;;;6.60;90.40;;;;;;5068304;28;20135;-69
2023/12/20 00:39:34;;;;;;;0.30;0.25;;;6.60;90.50;;;;;;5067897;28;20906;-69
2023/12/20 00:42:00;;;;;;;0.10;0.10;;;6.60;90.60;;;;;;5087626;28;20063;-69
2023/12/20 00:44:26;;;;;;;0.00;0.00;;;6.60;90.50;;;;;;5087991;28;20131;-69
2023/12/20 00:46:51;;;;;;;0.00;0.00;;;6.60;90.60;;;;;;5087114;28;20173;-69
2023/12/20 00:49:17;;;;;;;0.00;0.00;;;6.60;90.50;;;;;;5053259;28;20138;-69
2023/12/20 00:51:43;;;;;;;0.03;0.03;;;6.70;90.30;;;;;;5087611;28;20033;-69
2023/12/20 00:54:09;;;;;;;0.00;0.00;;;6.80;89.90;;;;;;5087514;28;20447;-70
2023/12/20 00:56:35;;;;;;;0.13;0.13;;;6.80;89.30;;;;;;5069202;28;20040;-69
2023/12/20 00:59:00;;;;;;;0.00;0.00;;;6.80;88.70;;;;;;5067515;28;20087;-69
2023/12/20 01:01:26;;;;;;;0.22;0.22;;;6.80;88.60;;;;;;5087171;28;20123;-69
2023/12/20 01:03:52;;;;;;;0.00;0.00;;;6.80;88.90;;;;;;5087502;28;20032;-69
2023/12/20 01:06:18;;;;;;;0.00;0.00;;;6.90;88.70;;;;;;5087484;28;20052;-69
2023/12/20 01:08:44;;;;;;;0.10;0.10;;;6.80;88.60;;;;;;5087689;28;20076;-69
2023/12/20 01:11:10;;;;;;;0.00;0.00;;;6.90;88.60;;;;;;5087333;28;20043;-69
2023/12/20 01:13:36;;;;;;;0.00;0.00;;;6.80;88.80;;;;;;5086899;28;20050;-69
2023/12/20 01:16:02;;;;;;;0.08;0.08;;;6.80;88.80;;;;;;5086999;28;20071;-69
2023/12/20 01:18:28;;;;;;;0.08;0.08;;;6.90;89.00;;;;;;5087492;28;20044;-69
2023/12/20 01:20:54;;;;;;;0.00;0.00;;;6.90;89.00;;;;;;5087195;28;20098;-69
2023/12/20 01:23:19;;;;;;;0.20;0.20;;;6.90;89.30;;;;;;5087193;28;20048;-69
2023/12/20 01:25:45;;;;;;;0.00;0.00;;;7.10;89.20;;;;;;5077394;28;20045;-69
2023/12/20 01:28:11;;;;;;;0.00;0.00;;;7.10;89.20;;;;;;5066507;28;20057;-69
2023/12/20 01:30:36;;;;;;;0.00;0.00;;;7.00;89.10;;;;;;5067588;28;20045;-69
2023/12/20 01:33:02;;;;;;;0.00;0.00;;;7.10;89.00;;;;;;5066514;28;20041;-69
2023/12/20 01:35:28;;;;;;;2.38;0.65;;;7.10;89.10;;;;;;5074441;28;20862;-69
2023/12/20 01:37:56;;;;;;;0.00;0.00;;;7.10;89.20;;;;;;5086896;28;20039;-69
2023/12/20 01:40:22;;;;;;;0.00;0.00;;;7.10;89.30;;;;;;5086853;28;20048;-69
2023/12/20 01:43:08;;;;;;;0.00;0.00;;;7.10;89.30;;;;;;5087075;28;20701;-69
2023/12/20 01:45:34;;;;;;;0.00;0.00;;;7.10;89.30;;;;;;5086858;28;20529;-69
2023/12/20 01:48:02;;;;;;;0.40;0.40;;;7.10;88.90;;;;;;5072318;28;20044;-69
2023/12/20 01:50:30;;;;;;;0.00;0.00;;;7.10;88.70;;;;;;5080441;28;20048;-70
2023/12/20 01:52:58;;;;;;;0.00;0.00;;;7.20;88.20;;;;;;5070359;28;20049;-69
2023/12/20 01:55:25;;;;;;;2.22;2.03;;;7.20;88.10;;;;;;5075041;28;20036;-69
2023/12/20 01:57:51;;;;;;;0.05;0.05;;;7.20;87.80;;;;;;5090123;28;20048;-70
2023/12/20 02:00:18;;;;;;;0.00;0.00;;;7.30;87.70;;;;;;5090296;28;20047;-69
2023/12/20 02:02:45;;;;;;;0.32;0.32;;;7.40;87.90;;;;;;5078823;28;20102;-69
2023/12/20 02:05:12;;;;;;;0.03;0.03;;;7.40;88.10;;;;;;5090106;28;20043;-69
2023/12/20 02:07:37;;;;;;;0.00;0.00;;;7.30;88.20;;;;;;5082274;28;20040;-69
2023/12/20 02:10:04;;;;;;;32.70;1.55;;;7.30;88.30;;;;;;5082992;28;20090;-69
2023/12/20 02:12:30;;;;;;;0.00;0.00;;;7.40;88.20;;;;;;5070160;28;20055;-69
2023/12/20 02:14:56;;;;;;;0.00;0.00;;;7.30;88.30;;;;;;5086373;28;20114;-69
2023/12/20 02:17:23;;;;;;;0.32;0.32;;;7.40;88.30;;;;;;5082326;28;20463;-69
2023/12/20 02:19:49;;;;;;;1.42;1.05;;;7.40;88.30;;;;;;5075207;28;20051;-69
2023/12/20 02:22:15;;;;;;;0.35;0.35;;;7.40;88.20;;;;;;5089669;28;20515;-69
2023/12/20 02:24:41;;;;;;;0.00;0.00;;;7.40;87.80;;;;;;5090130;28;20056;-69
2023/12/20 02:27:08;;;;;;;0.08;0.08;;;7.50;87.30;;;;;;5089504;28;20044;-69
2023/12/20 02:29:34;;;;;;;0.30;0.30;;;7.40;87.40;;;;;;5090033;28;20055;-69
2023/12/20 02:32:00;;;;;;;0.10;0.10;;;7.50;87.50;;;;;;5089791;28;20603;-69
2023/12/20 02:34:26;;;;;;;0.70;0.70;;;7.50;87.20;;;;;;5105662;28;20077;-69
2023/12/20 02:36:52;;;;;;;0.10;0.10;;;7.60;87.10;;;;;;5089881;28;20052;-69
2023/12/20 02:39:19;;;;;;;0.00;0.00;;;7.50;87.10;;;;;;5089880;28;20543;-69
2023/12/20 02:41:44;;;;;;;0.00;0.00;;;7.60;87.10;;;;;;5088790;28;20040;-69
2023/12/20 02:44:10;;;;;;;0.00;0.00;;;7.50;86.80;;;;;;5101533;28;20048;-69
2023/12/20 02:46:36;;;;;;;0.00;0.00;;;7.60;87.00;;;;;;5089076;28;20449;-69
2023/12/20 02:49:01;;;;;;;0.00;0.00;;;7.50;87.20;;;;;;5089167;28;20039;-69
2023/12/20 02:51:27;;;;;;;0.00;0.00;;;7.40;87.30;;;;;;5090038;28;20066;-69
2023/12/20 02:53:53;;;;;;;0.00;0.00;;;7.40;87.50;;;;;;5089314;28;20040;-69
2023/12/20 02:56:18;;;;;;;0.00;0.00;;;7.50;87.30;;;;;;5089534;28;20032;-69
2023/12/20 02:58:44;;;;;;;0.77;0.77;;;7.40;87.30;;;;;;5088782;28;20048;-69
2023/12/20 03:01:10;;;;;;;0.00;0.00;;;7.50;87.00;;;;;;5089065;28;20500;-69
2023/12/20 03:03:35;;;;;;;0.00;0.00;;;7.60;87.00;;;;;;5089186;28;20036;-69
2023/12/20 03:06:01;;;;;;;0.00;0.00;;;7.60;87.20;;;;;;5089176;28;20040;-69
2023/12/20 03:08:27;;;;;;;0.08;0.08;;;7.60;87.00;;;;;;5076505;28;20045;-69
2023/12/20 03:10:59;;;;;;;0.10;0.10;;;7.60;87.10;;;;;;5083004;28;20086;-69
2023/12/20 03:13:24;;;;;;;0.00;0.00;;;7.60;87.20;;;;;;5088898;28;20746;-69
2023/12/20 03:15:50;;;;;;;0.00;0.00;;;7.50;87.40;;;;;;5089030;28;20052;-69
2023/12/20 03:18:16;;;;;;;0.00;0.00;;;7.50;87.30;;;;;;5078550;28;20045;-69
2023/12/20 03:20:42;;;;;;;0.00;0.00;;;7.40;87.50;;;;;;5095552;28;20059;-69
2023/12/20 03:23:08;;;;;;;0.00;0.00;;;7.40;87.40;;;;;;5088836;28;20048;-69
2023/12/20 03:25:33;;;;;;;0.10;0.10;;;7.50;87.30;;;;;;5088856;28;20556;-69
2023/12/20 03:28:00;;;;;;;2.35;1.08;;;7.40;87.20;;;;;;5087958;28;20055;-69
2023/12/20 03:30:25;;;;;;;0.00;0.00;;;7.30;87.40;;;;;;5088387;28;20040;-70
2023/12/20 03:32:51;;;;;;;0.10;0.10;;;7.40;87.20;;;;;;5088067;28;20036;-69
2023/12/20 03:35:17;;;;;;;0.40;0.40;;;7.50;86.70;;;;;;5087914;28;20044;-69
2023/12/20 03:37:43;;;;;;;0.08;0.08;;;7.40;86.40;;;;;;5088653;28;20059;-69
2023/12/20 03:40:09;;;;;;;0.10;0.10;;;7.40;86.60;;;;;;5088781;28;20075;-69
2023/12/20 03:42:35;;;;;;;1.95;1.60;;;7.40;86.90;;;;;;5088935;28;20052;-69
2023/12/20 03:45:00;;;;;;;0.00;0.00;;;7.50;86.50;;;;;;5087776;28;20615;-69
2023/12/20 03:47:26;;;;;;;0.03;0.03;;;7.50;86.60;;;;;;5086638;28;20032;-69
2023/12/20 03:49:52;;;;;;;0.38;0.38;;;7.60;86.30;;;;;;5087955;28;20476;-69
2023/12/20 03:52:18;;;;;;;0.00;0.00;;;7.60;86.30;;;;;;5088603;28;20080;-69
2023/12/20 03:54:44;;;;;;;0.52;0.52;;;7.60;86.30;;;;;;5088011;28;20083;-69
2023/12/20 03:57:09;;;;;;;0.00;0.00;;;7.70;86.40;;;;;;5087999;28;20119;-70
2023/12/20 03:59:36;;;;;;;0.13;0.13;;;7.70;86.40;;;;;;5082532;28;20056;-69
2023/12/20 04:02:02;;;;;;;0.57;0.57;;;7.70;86.30;;;;;;5073920;28;20402;-69
2023/12/20 04:04:28;;;;;;;1.02;0.95;;;7.80;86.50;;;;;;5087607;28;20056;-69
2023/12/20 04:06:53;;;;;;;0.82;0.80;;;7.70;86.60;;;;;;5070093;28;20059;-69
2023/12/20 04:09:19;;;;;;;0.15;0.15;;;7.70;86.80;;;;;;5087233;28;20036;-69
2023/12/20 04:11:44;;;;;;;0.00;0.00;;;7.60;87.00;;;;;;5088378;28;20526;-69
2023/12/20 04:14:10;;;;;;;4.57;2.13;;;7.60;87.40;;;;;;5087670;28;20421;-69
2023/12/20 04:16:36;;;;;;;0.00;0.00;;;7.70;87.50;;;;;;5087639;28;20815;-69
2023/12/20 04:19:02;;;;;;;0.60;0.60;;;7.70;87.20;;;;;;5088104;28;20157;-69
2023/12/20 04:21:28;;;;;;;0.05;0.05;;;7.70;87.20;;;;;;5087364;28;20044;-69
2023/12/20 04:23:53;;;;;;;0.00;0.00;;;7.70;86.90;;;;;;5087952;28;20078;-69
2023/12/20 04:26:19;;;;;;;0.00;0.00;;;7.70;86.80;;;;;;5087391;28;20499;-69
2023/12/20 04:28:44;;;;;;;0.15;0.15;;;7.80;86.80;;;;;;5087633;28;20433;-69
2023/12/20 04:31:10;;;;;;;0.25;0.25;;;7.80;86.50;;;;;;5087335;28;20109;-69
2023/12/20 04:33:36;;;;;;;1.50;1.40;;;7.90;86.30;;;;;;5069367;28;20071;-70
2023/12/20 04:36:01;;;;;;;0.13;0.13;;;7.80;86.50;;;;;;5088047;28;20094;-69
2023/12/20 04:38:27;;;;;;;7.60;3.60;;;7.80;86.50;;;;;;5087518;28;20052;-69
2023/12/20 04:40:53;;;;;;;2.55;2.10;;;7.80;86.50;;;;;;5086631;28;20051;-69
2023/12/20 04:43:18;;;;;;;0.52;0.52;;;7.90;86.10;;;;;;5088000;28;20048;-69
2023/12/20 04:45:44;;;;;;;1.20;1.10;;;7.90;86.30;;;;;;5069273;28;20070;-70
2023/12/20 04:48:10;;;;;;;0.00;0.00;;;7.80;86.50;;;;;;5087582;28;20040;-69
2023/12/20 04:50:35;;;;;;;0.00;0.00;;;7.80;86.60;;;;;;5087255;28;20388;-69
2023/12/20 04:53:01;;;;;;;0.95;0.88;;;7.80;86.50;;;;;;5087337;28;20514;-70
2023/12/20 04:55:27;;;;;;;0.00;0.00;;;7.80;86.80;;;;;;5087794;28;20839;-68
2023/12/20 04:57:52;;;;;;;0.00;0.00;;;7.80;86.80;;;;;;5083782;28;20062;-69
2023/12/20 05:00:18;;;;;;;0.00;0.00;;;7.80;87.00;;;;;;5085603;28;20131;-69
2023/12/20 05:02:44;;;;;;;2.22;0.95;;;7.80;87.10;;;;;;5086427;28;20100;-69
2023/12/20 05:05:09;;;;;;;0.40;0.40;;;7.90;87.00;;;;;;5085309;28;20039;-69
2023/12/20 05:07:35;;;;;;;1.27;1.25;;;7.90;87.20;;;;;;5085704;28;20510;-69
2023/12/20 05:10:01;;;;;;;0.00;0.00;;;7.90;87.20;;;;;;5086490;28;20032;-69
2023/12/20 05:12:26;;;;;;;0.32;0.32;;;8.00;87.20;;;;;;5087083;28;20048;-69
2023/12/20 05:14:52;;;;;;;3.60;2.65;;;7.90;87.10;;;;;;5087173;28;20410;-69
2023/12/20 05:17:20;;;;;;;0.25;0.25;;;8.00;87.10;;;;;;5087626;28;20413;-68
2023/12/20 05:19:46;;;;;;;0.00;0.00;;;8.00;86.90;;;;;;5087235;28;20433;-69
2023/12/20 05:22:11;;;;;;;0.00;0.00;;;7.90;86.90;;;;;;5090622;28;20040;-69
2023/12/20 05:24:37;;;;;;;0.00;0.00;;;8.00;86.40;;;;;;5090747;28;20426;-68
2023/12/20 05:27:03;;;;;;;0.00;0.00;;;8.10;85.90;;;;;;5090857;28;20047;-68
2023/12/20 05:29:29;;;;;;;0.15;0.15;;;8.00;85.80;;;;;;5091337;28;20121;-68
2023/12/20 05:31:54;;;;;;;0.00;0.00;;;8.10;85.90;;;;;;5090654;28;20055;-69
2023/12/20 05:34:20;;;;;;;0.00;0.00;;;8.10;86.20;;;;;;5090738;28;20048;-69
2023/12/20 05:36:46;;;;;;;0.00;0.00;;;8.10;86.10;;;;;;5090950;28;20178;-69
2023/12/20 05:39:11;;;;;;;3.97;1.50;;;8.10;86.10;;;;;;5091104;28;20040;-69
2023/12/20 05:41:37;;;;;;;0.00;0.00;;;8.10;85.90;;;;;;5090288;28;20422;-70
2023/12/20 05:44:03;;;;;;;0.10;0.10;;;8.20;85.80;;;;;;5090411;28;20069;-69
2023/12/20 05:46:29;;;;;;;0.28;0.28;;;8.20;85.80;;;;;;5090544;28;20177;-69
2023/12/20 05:48:54;;;;;;;0.52;0.52;;;8.20;85.80;;;;;;5090754;28;20043;-69
2023/12/20 05:51:20;;;;;;;0.00;0.00;;;8.20;85.80;;;;;;5090122;28;20044;-69
2023/12/20 05:53:45;;;;;;;0.05;0.05;;;8.20;85.80;;;;;;5070886;28;20044;-69
2023/12/20 05:56:13;;;;;;;0.03;0.03;;;8.30;86.00;;;;;;5090587;28;20044;-68
2023/12/20 05:58:39;;;;;;;0.35;0.35;;;8.20;86.10;;;;;;5090102;28;20656;-69
2023/12/20 06:01:07;;;;;;;0.00;0.00;;;8.20;86.10;;;;;;5106231;28;20052;-68
2023/12/20 06:03:34;;;;;;;40.10;2.17;;;8.20;86.20;;;;;;5089426;28;20585;-69
2023/12/20 06:06:08;;;;;;;0.43;0.43;;;8.20;85.70;;;;;;5090121;28;20051;-69
2023/12/20 06:08:34;;;;;;;0.47;0.43;;;8.20;85.70;;;;;;5087896;28;20047;-68
2023/12/20 06:11:00;;;;;;;0.73;0.73;;;8.20;85.40;;;;;;5090344;28;20379;-69
2023/12/20 06:14:00;;;;;;;0.10;0.10;;;8.20;85.60;;;;;;5089617;28;20052;-68
2023/12/20 06:16:26;;;;;;;0.20;0.20;;;8.20;85.60;;;;;;5088474;28;20067;-69
2023/12/20 06:18:52;;;;;;;0.20;0.20;;;8.30;85.50;;;;;;5088288;28;20410;-69
2023/12/20 06:21:18;;;;;;;0.10;0.10;;;8.30;85.40;;;;;;5088229;28;20665;-68
2023/12/20 06:23:43;;;;;;;0.10;0.10;;;8.40;85.20;;;;;;5088431;28;20040;-69
2023/12/20 06:26:34;;;;;;;0.00;0.00;;;8.40;85.40;;;;;;5089122;28;20694;-69
2023/12/20 06:29:00;;;;;;;0.30;0.30;;;8.40;85.10;;;;;;5043141;28;20155;-69
2023/12/20 06:31:26;;;;;;;0.70;0.70;;;8.40;84.90;;;;;;5031295;28;20128;-68
2023/12/20 06:33:57;;;;;;;0.88;0.88;;;8.40;85.10;;;;;;5039949;28;20420;-70
2023/12/20 06:36:29;;;;;;;7.88;3.03;;;8.40;85.10;;;;;;5036176;28;20053;-70
2023/12/20 06:38:57;;;;;;;0.70;0.70;;;8.40;85.00;;;;;;5034192;28;20045;-69
2023/12/20 06:41:24;;;;;;;0.00;0.00;;;8.40;85.00;;;;;;5033237;28;20046;-69
2023/12/20 06:43:51;;;;;;;0.00;0.00;;;8.40;85.20;;;;;;5042131;28;20081;-69
2023/12/20 06:46:18;;;;;;;0.05;0.05;;;8.50;85.10;;;;;;5045325;28;20183;-69
2023/12/20 06:48:43;;;;;;;0.00;0.00;;;8.40;85.20;;;;;;5050118;28;20049;-69
2023/12/20 06:51:14;;;;;;;0.10;0.10;;;8.40;85.10;;;;;;5048775;28;20051;-69
2023/12/20 06:53:39;;;;;;;0.40;0.40;;;8.40;85.40;;;;;;5049708;28;20049;-69
2023/12/20 06:56:05;;;;;;;0.00;0.00;;;8.40;85.50;;;;;;5049522;28;20488;-68
2023/12/20 06:58:31;;;;;;;0.20;0.20;;;8.30;85.80;;;;;;5048424;28;20091;-68
2023/12/20 07:00:56;;;;;;;0.00;0.00;;;8.40;85.80;;;;;;5037981;28;20044;-69
2023/12/20 07:03:22;;;;;;;0.40;0.40;;;8.50;85.60;;;;;;5035413;28;20053;-68
2023/12/20 07:05:48;;;;;;;0.70;0.70;;;8.40;85.70;;;;;;5029845;28;20042;-69
2023/12/20 07:08:15;;;;;;;0.52;0.52;;;8.40;85.80;;;;;;5029478;28;20643;-69
2023/12/20 07:10:41;;;;;;;0.10;0.10;;;8.50;85.60;;;;;;5036546;28;20041;-69
2023/12/20 07:13:07;;;;;;;0.10;0.10;;;8.40;85.90;;;;;;5044152;28;20049;-69
2023/12/20 07:15:33;;;;;;;0.10;0.10;;;8.40;85.80;;;;;;5029645;28;20053;-68
2023/12/20 07:18:00;;;;;;;0.00;0.00;;;8.50;85.50;;;;;;5030441;28;20149;-70
2023/12/20 07:20:26;;;;;;;0.10;0.10;;;8.40;86.10;;;;;;5046042;28;20045;-69
2023/12/20 07:22:51;;;;;;;0.47;0.47;;;8.50;85.60;;;;;;5048450;28;20066;-69
2023/12/20 07:25:17;;;;;;;0.55;0.55;;;8.40;85.20;;;;;;5047150;28;20072;-69
2023/12/20 07:27:43;;;;;;;0.00;0.00;;;8.40;85.20;;;;;;5067360;28;20072;-69
2023/12/20 07:30:10;;;;;;;2.67;2.45;;;8.40;85.10;;;;;;5070748;28;20074;-69
2023/12/20 07:32:35;;;;;;;0.43;0.43;;;8.40;85.00;;;;;;5085829;28;20551;-70
2023/12/20 07:35:02;;;;;;;0.00;0.00;;;8.50;85.20;;;;;;5088751;28;20040;-69
2023/12/20 07:37:28;;;;;;;0.00;0.00;;;8.50;85.00;;;;;;5085627;28;20505;-69
2023/12/20 07:39:54;;;;;;;0.32;0.32;;;8.60;84.80;;;;;;5073673;28;20046;-69
2023/12/20 07:42:19;;;;;;;0.80;0.80;;;8.60;84.70;;;;;;5085247;28;20036;-69
2023/12/20 07:44:45;;;;;;;0.03;0.03;;;8.60;84.80;;;;;;5085725;28;20035;-69
2023/12/20 07:47:15;;;;;;;0.05;0.05;;;8.40;85.10;;;;;;5088009;28;20048;-68
2023/12/20 07:49:41;;;;;;;0.00;0.00;;;8.50;85.10;;;;;;5090722;28;20066;-69
2023/12/20 07:52:08;;;;;;;0.00;0.00;;;8.40;85.30;;;;;;5097915;28;20055;-69
2023/12/20 07:54:33;;;;;;;0.00;0.00;;;8.40;85.50;;;;;;5110280;28;20044;-69
2023/12/20 07:56:59;;;;;;;0.00;0.00;;;8.50;85.40;;;;;;5087371;28;20089;-69
2023/12/20 07:59:24;;;;;;;0.00;0.00;;;8.40;85.60;;;;;;5086804;28;20105;-69
2023/12/20 08:01:50;;;;;;;0.30;0.30;;;8.30;85.80;;;;;;5087056;28;20044;-69
2023/12/20 08:04:16;;;;;;;0.00;0.00;;;8.30;85.90;;;;;;5087451;28;20478;-68
2023/12/20 08:06:41;;;;;;;0.00;0.00;;;8.40;86.10;;;;;;5087247;28;20115;-69
2023/12/20 08:09:07;;;;;;;0.00;0.00;;;8.40;85.70;;;;;;5085551;28;20117;-69
2023/12/20 08:11:32;;;;;;;0.00;0.00;;;8.50;85.70;;;;;;5079515;28;20098;-71
2023/12/20 08:13:58;;;;;;;0.00;0.00;;;8.60;85.70;;;;;;5100063;28;20070;-70
2023/12/20 08:16:24;;;;;;;0.00;0.00;;;8.60;85.30;;;;;;5063598;28;20102;-69
2023/12/20 08:18:50;;;;;;;0.00;0.00;;;8.60;85.40;;;;;;5085361;28;20061;-69
2023/12/20 08:21:16;;;;;;;0.00;0.00;;;8.60;85.20;;;;;;5085964;28;20050;-70
2023/12/20 08:23:45;;;;;;;0.00;0.00;;;8.50;85.40;;;;;;5081445;28;20071;-71
2023/12/20 08:26:10;;;;;;;0.73;0.73;;;8.50;85.40;;;;;;5076835;28;20071;-72
2023/12/20 08:28:37;;;;;;;0.30;0.30;;;8.50;85.50;;;;;;5084669;28;20422;-70
2023/12/20 08:31:03;;;;;;;0.20;0.20;;;8.50;85.50;;;;;;5080503;28;20103;-71
2023/12/20 08:33:28;;;;;;;0.10;0.10;;;8.50;85.70;;;;;;5085075;28;20445;-71
2023/12/20 08:35:54;;;;;;;0.57;0.57;;;8.50;85.20;;;;;;5076705;28;20041;-70
2023/12/20 08:38:19;;;;;;;0.00;0.00;;;8.50;85.30;;;;;;5081926;28;20473;-70
2023/12/20 08:40:45;;;;;;;0.10;0.10;;;8.60;85.20;;;;;;5075782;28;20124;-70
2023/12/20 08:47:58;;;;;;;0.10;0.10;;;8.60;85.40;;;;;;5076925;28;20067;-68
2023/12/20 08:50:25;;;;;;;2.22;2.08;;;8.60;85.10;;;;;;5083586;28;20060;-71
2023/12/20 08:52:51;;;;;;;0.10;0.10;;;8.60;84.90;;;;;;5083041;28;20589;-72
2023/12/20 08:55:18;;;;;;;0.10;0.10;;;8.60;85.00;;;;;;5067346;28;20115;-72
2023/12/20 08:57:43;;;;;;;0.00;0.00;;;8.60;85.20;;;;;;5083571;28;20083;-72
2023/12/20 09:00:10;;;;;;;0.30;0.30;;;8.60;85.30;;;;;;5088619;28;20106;-71
2023/12/20 09:02:36;;;;;;;0.00;0.00;;;8.60;85.10;;;;;;5088306;28;20183;-72
2023/12/20 09:05:02;;;;;;;0.03;0.03;;;8.60;84.00;;;;;;5088662;28;20098;-71
2023/12/20 09:07:30;;;;;;;0.00;0.00;;;8.50;83.40;;;;;;5088487;28;20076;-72
2023/12/20 09:09:56;;;;;;;0.00;0.00;;;8.40;83.90;;;;;;5086902;28;20060;-72
2023/12/20 09:12:21;;;;;;;0.00;0.00;;;8.20;84.90;;;;;;5086958;28;20073;-72
2023/12/20 09:14:48;;;;;;;0.00;0.00;;;8.20;84.60;;;;;;5086617;28;20052;-71
2023/12/20 09:17:16;;;;;;;0.00;0.00;;;8.20;84.50;;;;;;5081724;28;20036;-71
2023/12/20 09:19:41;;;;;;;0.00;0.00;;;8.20;83.60;;;;;;5070313;28;20082;-70
2023/12/20 09:22:07;;;;;;;0.05;0.05;;;8.00;83.70;;;;;;5090260;28;20068;-70
2023/12/20 09:24:33;;;;;;;0.08;0.08;;;7.80;84.50;;;;;;5090282;28;20048;-71
2023/12/20 09:26:58;;;;;;;0.00;0.00;;;7.60;84.80;;;;;;5089649;28;20056;-71
2023/12/20 09:29:24;;;;;;;0.50;0.50;;;7.30;85.80;;;;;;5089745;28;20052;-70
2023/12/20 09:31:50;;;;;;;0.03;0.03;;;7.20;86.10;;;;;;5090113;28;20388;-70
2023/12/20 09:34:19;;;;;;;0.00;0.00;;;7.10;86.50;;;;;;5080421;28;20123;-70
2023/12/20 09:36:46;;;;;;;0.05;0.05;;;7.00;86.90;;;;;;5085328;28;20482;-70
2023/12/20 09:39:23;;;;;;;1.45;0.95;;;6.90;87.30;;;;;;5079897;28;20044;-70
2023/12/20 09:42:01;;;;;;;0.00;0.00;;;7.10;87.00;;;;;;5090073;28;20596;-70
2023/12/20 09:44:27;;;;;;;0.00;0.00;;;7.00;87.60;;;;;;5073679;28;20477;-70
2023/12/20 09:46:54;;;;;;;0.00;0.00;;;6.90;88.00;;;;;;5088662;28;20052;-71
2023/12/20 09:49:20;;;;;;;0.10;0.10;;;6.90;88.20;;;;;;5087646;28;20127;-70
2023/12/20 09:51:53;;;;;;;0.00;0.00;;;6.80;88.40;;;;;;5090007;28;20051;-71
2023/12/20 09:54:21;;;;;;;0.00;0.00;;;6.90;88.50;;;;;;5089499;28;20075;-70
2023/12/20 09:56:47;;;;;;;0.00;0.00;;;7.10;90.10;;;;;;5089380;28;20055;-70
2023/12/20 09:59:13;;;;;;;0.05;0.05;;;7.10;87.60;;;;;;5095974;28;20127;-69
2023/12/20 10:01:40;;;;;;;0.00;0.00;;;7.10;87.00;;;;;;5074621;28;20455;-70
2023/12/20 10:04:08;;;;;;;0.00;0.00;;;7.00;86.40;;;;;;5089372;28;20040;-71
2023/12/20 10:06:37;;;;;;;0.10;0.10;;;7.10;86.30;;;;;;5088700;28;20112;-70
2023/12/20 10:09:04;;;;;;;0.00;0.00;;;7.00;86.00;;;;;;5087949;28;20071;-71
2023/12/20 10:11:29;;;;;;;0.00;0.00;;;7.00;85.80;;;;;;5089398;28;20100;-70
2023/12/20 10:14:01;;;;;;;0.00;0.00;;;7.00;85.90;;;;;;5083440;28;20040;-68
2023/12/20 10:16:28;;;;;;;;;;;7.10;86.10;;;;;;5084606;28;20040;-70
2023/12/20 10:18:54;;;;;;;0.00;0.00;;;7.10;86.20;;;;;;5088779;28;19928;-71
2023/12/20 10:21:20;;;;;;;0.00;0.00;;;7.10;86.30;;;;;;5088255;28;20123;-71
2023/12/20 10:23:46;;;;;;;0.00;0.00;;;7.10;86.30;;;;;;5087005;28;20368;-71
2023/12/20 10:26:21;;;;;;;0.45;0.45;;;7.10;86.10;;;;;;5069067;28;20036;-71
2023/12/20 10:28:49;;;;;;;1.65;1.55;;;7.20;86.30;;;;;;5081899;28;20048;-71
2023/12/20 10:31:36;;;;;;;2.13;1.20;;;7.20;86.20;;;;;;5088922;28;20032;-69
2023/12/20 10:34:02;;;;;;;0.10;0.10;;;7.20;85.80;;;;;;5073882;28;20036;-70
2023/12/20 10:36:30;;;;;;;0.10;0.10;;;7.30;86.00;;;;;;5089874;28;20040;-69
2023/12/20 10:39:01;;;;;;;0.00;0.00;;;7.60;88.60;;;;;;5085738;28;20042;-69
2023/12/20 10:41:31;;;;;;;0.03;0.03;;;7.80;86.40;;;;;;5083729;28;20048;-70
2023/12/20 10:44:01;;;;;;;0.00;0.00;;;7.70;85.80;;;;;;5087823;28;20063;-70
2023/12/20 10:46:30;;;;;;;0.00;0.00;;;7.60;85.70;;;;;;5088489;28;20044;-71
2023/12/20 10:48:57;;;;;;;0.00;0.00;;;7.60;86.00;;;;;;5087118;28;20123;-71
2023/12/20 10:51:24;;;;;;;0.00;0.00;;;7.70;86.20;;;;;;5098645;28;20562;-71
2023/12/20 10:53:50;;;;;;;0.10;0.10;;;7.60;86.30;;;;;;5088440;28;20410;-70
2023/12/20 10:56:20;;;;;;;0.10;0.10;;;7.60;86.30;;;;;;5087018;28;20044;-70
2023/12/20 10:58:47;;;;;;;0.00;0.00;;;7.60;86.40;;;;;;5088985;28;20043;-71
2023/12/20 11:01:20;;;;;;;0.00;0.00;;;7.60;86.40;;;;;;5086688;28;20040;-70
2023/12/20 11:03:52;;;;;;;0.28;0.28;;;7.60;86.50;;;;;;5088309;28;20460;-71
2023/12/20 11:06:36;;;;;;;;;;;7.60;86.60;;;;;;5083836;28;20453;-71
2023/12/20 11:09:31;;;;;;;0.40;0.40;;;7.60;86.50;;;;;;5085321;28;20015;-71
2023/12/20 11:12:17;;;;;;;0.00;0.00;;;7.60;86.70;;;;;;5086198;28;20078;-71
2023/12/20 11:14:51;;;;;;;0.57;0.57;;;7.60;86.90;;;;;;5087237;28;20040;-71
2023/12/20 11:17:18;;;;;;;0.00;0.00;;;7.70;87.00;;;;;;5087524;28;20568;-69
2023/12/20 11:20:04;;;;;;;0.25;0.25;;;7.70;87.10;;;;;;5103042;28;20100;-69
2023/12/20 11:22:31;;;;;;;0.00;0.00;;;7.70;87.10;;;;;;5086951;28;20069;-69
2023/12/20 11:25:10;;;;;;;0.00;0.00;;;7.90;87.20;;;;;;5087025;28;20078;-69
2023/12/20 11:27:40;;;;;;;0.00;0.00;;;7.90;87.10;;;;;;5087679;28;20097;-68
2023/12/20 11:30:08;;;;;;;1.02;0.95;;;7.90;87.10;;;;;;5076164;28;20040;-69
2023/12/20 11:32:35;;;;;;;0.00;0.00;;;7.90;87.10;;;;;;5087478;28;20102;-69
2023/12/20 11:35:08;;;;;;;15.60;3.22;;;7.90;87.10;;;;;;5068558;28;20748;-69
2023/12/20 11:37:38;;;;;;;0.20;0.20;;;7.90;86.70;;;;;;5085993;28;20048;-69
2023/12/20 11:40:07;;;;;;;0.00;0.00;;;7.90;87.00;;;;;;5087551;28;20134;-68
2023/12/20 11:42:34;;;;;;;0.00;0.00;;;8.00;87.20;;;;;;5087925;28;20095;-69
2023/12/20 11:45:03;;;;;;;0.30;0.30;;;7.90;87.40;;;;;;5087855;28;20047;-69
2023/12/20 11:47:31;;;;;;;0.00;0.00;;;7.90;87.40;;;;;;5088030;28;20074;-68
2023/12/20 11:49:57;;;;;;;0.88;0.80;;;8.00;87.60;;;;;;5087563;28;20047;-68
2023/12/20 11:52:22;;;;;;;0.00;0.00;;;8.00;87.70;;;;;;5087903;28;20048;-68
2023/12/20 11:54:48;;;;;;;0.10;0.10;;;8.00;88.00;;;;;;5087613;28;20043;-69
2023/12/20 11:57:14;;;;;;;0.65;0.65;;;7.90;88.00;;;;;;5087976;28;20051;-69
2023/12/20 11:59:39;;;;;;;0.10;0.10;;;8.00;88.30;;;;;;5086906;28;20135;-69
2023/12/20 12:02:05;;;;;;;0.10;0.10;;;7.80;88.40;;;;;;5087408;28;20047;-68
2023/12/20 12:04:31;;;;;;;0.00;0.00;;;7.90;88.50;;;;;;5088044;28;20102;-68
2023/12/20 12:06:57;;;;;;;0.10;0.10;;;7.80;88.50;;;;;;5087728;28;20567;-68
2023/12/20 12:09:23;;;;;;;0.00;0.00;;;7.80;88.60;;;;;;5087743;28;20039;-68
2023/12/20 12:11:49;;;;;;;0.00;0.00;;;7.70;88.70;;;;;;5087973;28;20040;-69
2023/12/20 12:14:14;;;;;;;0.00;0.00;;;7.70;88.80;;;;;;5087980;28;20126;-68
2023/12/20 12:16:43;;;;;;;0.00;0.00;;;7.70;88.80;;;;;;5087771;28;20036;-69
2023/12/20 12:19:20;;;;;;;0.00;0.00;;;7.70;89.10;;;;;;5087054;28;20076;-69
2023/12/20 12:21:46;;;;;;;0.03;0.03;;;7.60;88.90;;;;;;5083501;28;20048;-69
2023/12/20 12:24:12;;;;;;;0.03;0.03;;;7.60;88.70;;;;;;5086512;28;20448;-69
2023/12/20 12:26:38;;;;;;;0.00;0.00;;;7.40;88.00;;;;;;5087483;28;20510;-69
2023/12/20 12:29:03;;;;;;;0.00;0.00;;;7.50;88.20;;;;;;5086324;28;20123;-69
2023/12/20 12:31:30;;;;;;;0.00;0.00;;;7.40;88.10;;;;;;5085712;28;20036;-69
2023/12/20 12:33:56;;;;;;;0.00;0.00;;;7.40;88.20;;;;;;5086798;28;20468;-68
2023/12/20 12:36:22;;;;;;;0.55;0.55;;;7.30;88.20;;;;;;5082913;28;20048;-69
2023/12/20 12:38:47;;;;;;;0.00;0.00;;;7.30;88.10;;;;;;5086355;28;20052;-69
2023/12/20 12:41:15;;;;;;;0.00;0.00;;;7.20;88.10;;;;;;5086535;28;20903;-69
2023/12/20 12:43:41;;;;;;;0.43;0.43;;;7.20;88.30;;;;;;5086404;28;20044;-69
2023/12/20 12:46:07;;;;;;;0.00;0.00;;;7.10;88.20;;;;;;5086835;28;20553;-69
2023/12/20 12:48:33;;;;;;;0.32;0.32;;;7.10;88.40;;;;;;5086486;28;20171;-68
2023/12/20 12:50:59;;;;;;;1.02;1.00;;;7.10;88.70;;;;;;5086732;28;20044;-71
2023/12/20 12:53:27;;;;;;;0.38;0.38;;;7.00;89.00;;;;;;5084729;28;20055;-68
2023/12/20 12:55:53;;;;;;;0.10;0.10;;;7.00;89.20;;;;;;5085985;28;20052;-68
2023/12/20 12:58:19;;;;;;;0.00;0.00;;;7.10;89.10;;;;;;5085415;28;20059;-68
2023/12/20 13:00:48;;;;;;;0.00;0.00;;;6.90;89.90;;;;;;5086213;28;20561;-68